Главная страница
METAR-TAF:

METAR-TAF

Аэропорты :

King Mswati III International Airport

Манзини, Свазиленд

широта: 26-21-24S, долгота: 031-43-01E, высота над уровнем моря: 324 м

Текущие метеонаблюдения

Эта сводка был подготовлена 56 минут назад, в 09:00 UTC
Ветер 15 Узел от юго-юго-восточный
Температура 25°C
Влажность 74%
Давление 1019 hPa
Видимость 10 км и более
Рассеянная облачность на высоте 3000 фута

METAR: FDSK 260900Z 16015KT 9999 BKN030 25/20 Q1019 NOSIG

Время: 11:56 (09:56 UTC)

Прогноз

Эта сводка был подготовлена 23 часа и 56 минут назад, в 10:00 UTC
Прогноз действительный с 25-го 12 UTC до 25-го 18 UTC
Ветер 10 Узел от северо-северо-восточный
Видимость 10 км и более
Нет облачности ниже 1500 м, и нет кучево-дождевой облачности
изменения
С 25-го 14 UTC до 25-го 16 UTC
Ветер 10 Узел от юго-юго-восточный
Отдельные облака на высоте 3500 фута

TAF: FDSK 251000Z 2512/2518 02010KT CAVOK BECMG 2514/2516 15010KT SCT035

Метеонаблюдения и прогнозы для более 4000 аэропортов (сводки METAR и TAF).

Имеющиеся станции представлены на карте желтыми и красными точками.

Чтобы увидеть название станции, наведите на нее мышь.

Затем щелкните, чтобы увидеть метеонаблюдения и метеопрогнозы.

Управление картой: чтобы увеличить масштаб, щелкните зеленые кнопки с черным крестиком; чтобы уменьшить масштаб, щелкните зеленую кнопку с тире; для просмотра соседних карт щелкайте зеленые стрелки.


METAR-TAF: